Погода Малая Неклиновкана 2 недели

Ростовская область, Россия

20 мая-02 июня
  • 20мая
    Сегодня
    +10°
    +24°
    Практически безоблачно
    ВремяПогодаТемператураВлажностьДавлениеВетер, м/сВероятность осадков
    00:00Ясно и безоблачно+12°C83 %758 мм2.4 м/с2 %
    03:00Ясно и безоблачно+10°C89 %758 мм1.7 м/с2 %
    06:00Ясно и безоблачно+11°C85 %759 мм2.1 м/с2 %
    09:00Ясно и безоблачно+21°C61 %759 мм2.3 м/с2 %
    12:00Практически безоблачно+23°C46 %759 мм2.6 м/с4 %
    15:00Практически безоблачно+24°C45 %759 мм2.0 м/с4 %
    18:00Ясно и безоблачно+22°C47 %759 мм1.6 м/с2 %
    21:00Ясно и безоблачно+17°C65 %760 мм1.5 м/с2 %
  • 21мая
    Вторник
    +11°
    +25°
    Практически безоблачно
    ВремяПогодаТемператураВлажностьДавлениеВетер, м/сВероятность осадков
    00:00Ясно и безоблачно+14°C72 %760 мм1.0 м/с2 %
    03:00Ясно и безоблачно+11°C87 %760 мм2.1 м/с2 %
    06:00Ясно и безоблачно+12°C80 %761 мм2.5 м/с2 %
    09:00Ясно и безоблачно+22°C49 %761 мм2.0 м/с2 %
    12:00Практически безоблачно+25°C39 %761 мм2.7 м/с2 %
    15:00Практически безоблачно+25°C36 %761 мм2.5 м/с2 %
    18:00Практически безоблачно+23°C36 %760 мм1.4 м/с2 %
    21:00Практически безоблачно+17°C58 %760 мм1.6 м/с2 %
  • 22мая
    Среда
    +12°
    +28°
    Ясно и безоблачно
    ВремяПогодаТемператураВлажностьДавлениеВетер, м/сВероятность осадков
    00:00Ясно и безоблачно+15°C62 %760 мм2.3 м/с2 %
    03:00Ясно и безоблачно+12°C68 %759 мм1.7 м/с2 %
    06:00Ясно и безоблачно+13°C63 %760 мм2.8 м/с2 %
    09:00Ясно и безоблачно+23°C41 %760 мм2.9 м/с2 %
    12:00Ясно и безоблачно+27°C24 %760 мм4.5 м/с2 %
    15:00Ясно и безоблачно+27°C25 %759 мм4.1 м/с2 %
    18:00Ясно и безоблачно+25°C32 %758 мм2.2 м/с2 %
    21:00Ясно и безоблачно+17°C53 %758 мм2.3 м/с2 %
  • 23мая
    Четверг
    +15°
    +29°
    Ясно и безоблачно
    ВремяПогодаТемператураВлажностьДавлениеВетер, м/сВероятность осадков
    00:00Ясно и безоблачно+14°C64 %758 мм2.1 м/с2 %
    03:00Ясно и безоблачно+13°C58 %758 мм2.2 м/с2 %
    06:00Ясно и безоблачно+14°C55 %758 мм2.8 м/с2 %
    09:00Ясно и безоблачно+24°C42 %759 мм3.1 м/с2 %
    12:00Ясно и безоблачно+27°C26 %758 мм5.4 м/с2 %
    15:00Ясно и безоблачно+28°C24 %757 мм5.1 м/с2 %
    18:00Ясно и безоблачно+25°C27 %757 мм4.6 м/с2 %
    21:00Ясно и безоблачно+20°C36 %758 мм3.3 м/с2 %
  • 24мая
    Пятница
    +13°
    +28°
    Ясно и безоблачно
    ВремяПогодаТемператураВлажностьДавлениеВетер, м/сВероятность осадков
    00:00Ясно и безоблачно+18°C45 %759 мм5.0 м/с2 %
    03:00Ясно и безоблачно+16°C56 %759 мм5.4 м/с2 %
    06:00Ясно и безоблачно+16°C68 %760 мм6.2 м/с2 %
    09:00Ясно и безоблачно+22°C53 %761 мм7.5 м/с2 %
    12:00Ясно и безоблачно+26°C38 %761 мм7.8 м/с3 %
    15:00Ясно и безоблачно+27°C33 %761 мм7.9 м/с10 %
    18:00Ясно и безоблачно+25°C31 %761 мм7.7 м/с5 %
    21:00Ясно и безоблачно+20°C29 %763 мм6.8 м/с2 %
Мы используем cookies
Соглашаюсь